Northwood, IA (50459)

1:27 AM CDT on September 01, 2015 (GMT -0500)
KMNGLENV5 | | Change Station
CLOSE
Current Station
Personal Weather Station
Location: Glenville, MN
Elevation: 1320 ft
Nearby Weather Stations

Elev 1320 ft 43.54 °N, 93.24 °W | Updated 12 minutes ago

Partly Cloudy
Partly Cloudy
72.3 °F
Feels Like 72.3 °F
N
6.9
Wind Variable Wind from WSW
Gusts 10.7 mph

Today
High -- | Low -- °F
--% Chance of Precip.
Yesterday
High -- | Low -- °F
Precip. -- in
6:36 AM 7:48 PM
Waning Gibbous, 91% visible
Pressure 29.96 in
Visibility 4.0 miles
Clouds Clear
Dew Point 72 °F
Humidity 99%
Rainfall 0.00 in
Snow Depth Not available.
UV 0 out of 12
Pollen 10.90 out of 12
Air Quality Not available.
Flu Activity Not available.
METAR KAEL 010614Z AUTO 00000KT 4SM BR CLR 21/20 A2996 RMK AO2
Pressure 29.96 in
Visibility 4.0 miles
Clouds Clear
Dew Point 72 °F
Humidity 99%
Rainfall 0.00 in
Snow Depth Not available.
UV 0 out of 12
Pollen 10.90 out of 12
Air Quality Not available.
Flu Activity Not available.
METAR KAEL 010614Z AUTO 00000KT 4SM BR CLR 21/20 A2996 RMK AO2

10-Day Weather Forecast

×

Almanac

Astronomy

Sep. 01, 2015 Rise Set
Actual Time
Civil Twilight
Nautical Twilight
Astronomical Twilight
Moon
Length of Visible Light
Length of Day
Tomorrow will be .
, % of the Moon is Illuminated

Today's Extremes

State Highs State Lows

Community

WunderPhotos

Upload Photos

1,851,488 photos uploaded!

WunderBlogs® & News

Nearby

Air Quality

  Air Quality AQ Index Pollutant
Not available.

Snow Depth

Station Depth Elevation

Earthquake Activity

City Distance Mag. Time & Date
Minimum magnitude displayed is 2.5.

Coastal Water Temperatures

Place Temperature

Stations

Nearby Weather Stations

Station Location Temp. Windchill Dew Point Humidity Wind Precip. Elev Updated Type